Pagrindinis puslapis
METAR-TAF:

METAR-TAF

Oro uostai :

Heidrun, Norvegija

platuma: 65-19-30N, ilguma: 007-19-36E, Aukštis: 0 m

Dabartinis oras

Ataskaita buvo paskelbta 20 minutes, ne 22:20 UTC
Vėjas 12 kt iš Pietryčių
Temperatūra 13°C
Drėgmė 88%
Slėgis 1007 hPa
Matomumas 10 km arba daugiau
nėra debesų žemiau 1500 m ir nėra kamuolinių lietaus debesų

METAR: ENHE 162220Z 13012KT CAVOK 13/11 Q1007 W///S4

Laikas: 00:40 (22:40 UTC)

Prognozė

Ataskaita buvo paskelbta 2 valandos ir 40 minutes, ne 20:00 UTC
Prognozė galioja nuo 16 metu 21 UTC su 17 metu 06 UTC
Vėjas 20 kt iš Rytų
Matomumas 10 km arba daugiau
Su prošvaistėmis ne aukštis 6000 ft
Tapsmas
nuo 16 metu 22 UTC su 16 metu 24 UTC
Vėjas 9 kt iš Pietų/Pietryčių
Tapsmas
nuo 17 metu 00 UTC su 17 metu 02 UTC
Vėjas 15 kt iš Pietvakarių
Tikimybė 30%
nuo 17 metu 02 UTC su 17 metu 06 UTC
Matomumas: 0100 m
ne aukštis 200 ft
rūkas,

TAF: ENHE 162000Z 1621/1706 08020KT 9999 BKN060 BECMG 1622/1624 16009KT BECMG 1700/1702 22015KT PROB30 1702/1706 0100 FG VV002

Orai ataskaitas ir orų prognozės (METAR, TAF).

turimą stotys yra geltonos ir raudonos taškus žemėlapyje.

Perkelti pele per norėdami pamatyti stoties vardą.

Tada spustelėkite, norėdami matyti oro stebėjimo ir prognozės.

Norėdami pakeisti žemėlapį: spustelėkite ant žalios mygtukų su juodo kryžiaus žemyn,; žalią mygtuką su brūkšneliu, jei norite nutolinti; arba žalių rodyklių gretimoms žemėlapius.


METAR-TAF: